sensor_id;sensor_type;location;lat;lon;timestamp;P1;durP1;ratioP1;P2;durP2;ratioP2
11620;SDS011;5866;49.094;11.900;2022-10-17T00:01:02;26.33;;;24.20;;
11620;SDS011;5866;49.094;11.900;2022-10-17T00:03:31;24.98;;;22.75;;
11620;SDS011;5866;49.094;11.900;2022-10-17T00:06:03;25.67;;;23.63;;
11620;SDS011;5866;49.094;11.900;2022-10-17T00:08:32;23.88;;;21.63;;
11620;SDS011;5866;49.094;11.900;2022-10-17T00:11:02;22.17;;;20.08;;
11620;SDS011;5866;49.094;11.900;2022-10-17T00:13:32;22.70;;;20.40;;
11620;SDS011;5866;49.094;11.900;2022-10-17T00:16:00;25.77;;;23.35;;
11620;SDS011;5866;49.094;11.900;2022-10-17T00:18:28;25.23;;;22.65;;
11620;SDS011;5866;49.094;11.900;2022-10-17T00:20:55;25.50;;;22.92;;
11620;SDS011;5866;49.094;11.900;2022-10-17T00:23:23;23.73;;;21.38;;
11620;SDS011;5866;49.094;11.900;2022-10-17T00:25:58;22.33;;;19.90;;
11620;SDS011;5866;49.094;11.900;2022-10-17T00:28:26;22.90;;;20.58;;
11620;SDS011;5866;49.094;11.900;2022-10-17T00:30:56;25.67;;;23.58;;
11620;SDS011;5866;49.094;11.900;2022-10-17T00:33:24;25.42;;;22.92;;
11620;SDS011;5866;49.094;11.900;2022-10-17T00:36:00;22.50;;;20.10;;
11620;SDS011;5866;49.094;11.900;2022-10-17T00:38:28;21.58;;;19.75;;
11620;SDS011;5866;49.094;11.900;2022-10-17T00:40:56;24.75;;;22.40;;
11620;SDS011;5866;49.094;11.900;2022-10-17T00:43:24;21.17;;;19.05;;
11620;SDS011;5866;49.094;11.900;2022-10-17T00:45:52;21.58;;;19.73;;
11620;SDS011;5866;49.094;11.900;2022-10-17T00:48:21;22.27;;;20.05;;
11620;SDS011;5866;49.094;11.900;2022-10-17T00:50:50;25.80;;;23.35;;
11620;SDS011;5866;49.094;11.900;2022-10-17T00:53:18;20.27;;;18.23;;
11620;SDS011;5866;49.094;11.900;2022-10-17T00:55:47;20.02;;;18.23;;
11620;SDS011;5866;49.094;11.900;2022-10-17T00:58:16;28.70;;;26.05;;
11620;SDS011;5866;49.094;11.900;2022-10-17T01:00:46;26.67;;;24.08;;
11620;SDS011;5866;49.094;11.900;2022-10-17T01:03:14;21.35;;;19.42;;
11620;SDS011;5866;49.094;11.900;2022-10-17T01:05:43;21.85;;;19.75;;
11620;SDS011;5866;49.094;11.900;2022-10-17T01:08:12;20.95;;;18.98;;
11620;SDS011;5866;49.094;11.900;2022-10-17T01:10:42;20.42;;;18.40;;
11620;SDS011;5866;49.094;11.900;2022-10-17T01:13:22;23.08;;;20.98;;
11620;SDS011;5866;49.094;11.900;2022-10-17T01:15:57;27.38;;;21.15;;
11620;SDS011;5866;49.094;11.900;2022-10-17T01:18:33;27.00;;;21.35;;
11620;SDS011;5866;49.094;11.900;2022-10-17T01:21:16;24.88;;;22.55;;
11620;SDS011;5866;49.094;11.900;2022-10-17T01:23:58;26.70;;;21.08;;
11620;SDS011;5866;49.094;11.900;2022-10-17T01:26:51;754.75;;;45.58;;
11620;SDS011;5866;49.094;11.900;2022-10-17T01:29:32;23.67;;;21.45;;
11620;SDS011;5866;49.094;11.900;2022-10-17T01:32:11;30.25;;;20.02;;
11620;SDS011;5866;49.094;11.900;2022-10-17T01:34:43;19.50;;;17.40;;
11620;SDS011;5866;49.094;11.900;2022-10-17T01:37:20;22.90;;;20.50;;
11620;SDS011;5866;49.094;11.900;2022-10-17T01:39:56;23.30;;;17.90;;
11620;SDS011;5866;49.094;11.900;2022-10-17T01:42:30;19.48;;;17.42;;
11620;SDS011;5866;49.094;11.900;2022-10-17T01:45:03;24.88;;;22.70;;
11620;SDS011;5866;49.094;11.900;2022-10-17T01:47:39;29.75;;;26.60;;
11620;SDS011;5866;49.094;11.900;2022-10-17T01:50:09;25.88;;;23.50;;
11620;SDS011;5866;49.094;11.900;2022-10-17T01:52:44;39.72;;;36.67;;
11620;SDS011;5866;49.094;11.900;2022-10-17T01:55:17;34.47;;;31.50;;
11620;SDS011;5866;49.094;11.900;2022-10-17T01:57:49;29.58;;;26.65;;
11620;SDS011;5866;49.094;11.900;2022-10-17T02:00:20;25.95;;;23.23;;
11620;SDS011;5866;49.094;11.900;2022-10-17T02:02:52;23.10;;;20.80;;
11620;SDS011;5866;49.094;11.900;2022-10-17T02:05:23;22.45;;;20.00;;
11620;SDS011;5866;49.094;11.900;2022-10-17T02:07:55;21.58;;;19.33;;
11620;SDS011;5866;49.094;11.900;2022-10-17T02:10:24;53.67;;;26.77;;
11620;SDS011;5866;49.094;11.900;2022-10-17T02:13:01;23.63;;;17.73;;
11620;SDS011;5866;49.094;11.900;2022-10-17T02:15:39;25.48;;;20.23;;
11620;SDS011;5866;49.094;11.900;2022-10-17T02:18:25;20.92;;;18.73;;
11620;SDS011;5866;49.094;11.900;2022-10-17T02:21:04;25.48;;;22.83;;
11620;SDS011;5866;49.094;11.900;2022-10-17T02:23:35;22.15;;;19.63;;
11620;SDS011;5866;49.094;11.900;2022-10-17T02:26:09;24.00;;;20.00;;
11620;SDS011;5866;49.094;11.900;2022-10-17T02:28:40;24.13;;;18.65;;
11620;SDS011;5866;49.094;11.900;2022-10-17T02:31:12;417.52;;;29.40;;
11620;SDS011;5866;49.094;11.900;2022-10-17T02:33:45;443.75;;;30.15;;
11620;SDS011;5866;49.094;11.900;2022-10-17T02:36:20;50.25;;;23.42;;
11620;SDS011;5866;49.094;11.900;2022-10-17T02:38:50;23.52;;;18.83;;
11620;SDS011;5866;49.094;11.900;2022-10-17T02:41:21;22.67;;;17.65;;
11620;SDS011;5866;49.094;11.900;2022-10-17T02:43:50;20.33;;;17.50;;
11620;SDS011;5866;49.094;11.900;2022-10-17T02:46:25;19.23;;;17.33;;
11620;SDS011;5866;49.094;11.900;2022-10-17T02:48:57;30.80;;;23.52;;
11620;SDS011;5866;49.094;11.900;2022-10-17T02:51:30;23.75;;;21.52;;
11620;SDS011;5866;49.094;11.900;2022-10-17T02:54:04;20.02;;;18.13;;
11620;SDS011;5866;49.094;11.900;2022-10-17T02:56:37;29.75;;;27.05;;
11620;SDS011;5866;49.094;11.900;2022-10-17T02:59:08;59.60;;;24.08;;
11620;SDS011;5866;49.094;11.900;2022-10-17T03:01:41;39.08;;;20.50;;
11620;SDS011;5866;49.094;11.900;2022-10-17T03:04:11;19.95;;;17.98;;
11620;SDS011;5866;49.094;11.900;2022-10-17T03:06:40;29.48;;;25.42;;
11620;SDS011;5866;49.094;11.900;2022-10-17T03:09:08;26.45;;;24.10;;
11620;SDS011;5866;49.094;11.900;2022-10-17T03:11:35;46.47;;;19.70;;
11620;SDS011;5866;49.094;11.900;2022-10-17T03:14:03;28.20;;;25.38;;
11620;SDS011;5866;49.094;11.900;2022-10-17T03:16:31;23.55;;;21.15;;
11620;SDS011;5866;49.094;11.900;2022-10-17T03:18:58;26.08;;;20.35;;
11620;SDS011;5866;49.094;11.900;2022-10-17T03:21:27;409.33;;;34.15;;
11620;SDS011;5866;49.094;11.900;2022-10-17T03:23:55;48.53;;;21.23;;
11620;SDS011;5866;49.094;11.900;2022-10-17T03:26:22;21.52;;;18.48;;
11620;SDS011;5866;49.094;11.900;2022-10-17T03:28:50;34.13;;;30.60;;
11620;SDS011;5866;49.094;11.900;2022-10-17T03:31:20;26.02;;;23.67;;
11620;SDS011;5866;49.094;11.900;2022-10-17T03:33:47;30.27;;;27.45;;
11620;SDS011;5866;49.094;11.900;2022-10-17T03:36:16;23.85;;;20.50;;
11620;SDS011;5866;49.094;11.900;2022-10-17T03:38:46;25.42;;;21.92;;
11620;SDS011;5866;49.094;11.900;2022-10-17T03:41:13;29.20;;;22.88;;
11620;SDS011;5866;49.094;11.900;2022-10-17T03:43:41;28.17;;;25.33;;
11620;SDS011;5866;49.094;11.900;2022-10-17T03:46:09;38.53;;;29.55;;
11620;SDS011;5866;49.094;11.900;2022-10-17T03:48:36;122.10;;;33.90;;
11620;SDS011;5866;49.094;11.900;2022-10-17T03:51:04;230.93;;;46.60;;
11620;SDS011;5866;49.094;11.900;2022-10-17T03:53:34;134.00;;;41.92;;
11620;SDS011;5866;49.094;11.900;2022-10-17T03:56:10;264.98;;;49.38;;
11620;SDS011;5866;49.094;11.900;2022-10-17T03:58:39;131.25;;;38.97;;
11620;SDS011;5866;49.094;11.900;2022-10-17T04:01:08;153.00;;;31.73;;
11620;SDS011;5866;49.094;11.900;2022-10-17T04:03:38;158.20;;;37.05;;
11620;SDS011;5866;49.094;11.900;2022-10-17T04:06:06;46.90;;;43.00;;
11620;SDS011;5866;49.094;11.900;2022-10-17T04:08:34;172.00;;;99.70;;
11620;SDS011;5866;49.094;11.900;2022-10-17T04:11:02;168.50;;;92.05;;
11620;SDS011;5866;49.094;11.900;2022-10-17T04:13:32;82.20;;;52.67;;
11620;SDS011;5866;49.094;11.900;2022-10-17T04:16:01;61.08;;;43.08;;
11620;SDS011;5866;49.094;11.900;2022-10-17T04:18:30;52.55;;;40.05;;
11620;SDS011;5866;49.094;11.900;2022-10-17T04:20:59;44.60;;;40.38;;
11620;SDS011;5866;49.094;11.900;2022-10-17T04:23:27;62.53;;;49.47;;
11620;SDS011;5866;49.094;11.900;2022-10-17T04:25:55;46.97;;;42.17;;
11620;SDS011;5866;49.094;11.900;2022-10-17T04:28:23;197.00;;;45.58;;
11620;SDS011;5866;49.094;11.900;2022-10-17T04:30:57;146.38;;;41.13;;
11620;SDS011;5866;49.094;11.900;2022-10-17T04:33:25;65.60;;;31.90;;
11620;SDS011;5866;49.094;11.900;2022-10-17T04:35:56;46.80;;;40.35;;
11620;SDS011;5866;49.094;11.900;2022-10-17T04:38:24;51.40;;;44.17;;
11620;SDS011;5866;49.094;11.900;2022-10-17T04:40:55;218.88;;;48.42;;
11620;SDS011;5866;49.094;11.900;2022-10-17T04:43:23;134.85;;;43.05;;
11620;SDS011;5866;49.094;11.900;2022-10-17T04:45:51;94.57;;;28.75;;
11620;SDS011;5866;49.094;11.900;2022-10-17T04:48:20;169.23;;;34.20;;
11620;SDS011;5866;49.094;11.900;2022-10-17T04:50:54;191.20;;;41.83;;
11620;SDS011;5866;49.094;11.900;2022-10-17T04:53:23;130.73;;;54.45;;
11620;SDS011;5866;49.094;11.900;2022-10-17T04:55:52;291.95;;;60.55;;
11620;SDS011;5866;49.094;11.900;2022-10-17T04:58:20;212.85;;;47.92;;
11620;SDS011;5866;49.094;11.900;2022-10-17T05:00:48;358.77;;;46.22;;
11620;SDS011;5866;49.094;11.900;2022-10-17T05:03:15;147.10;;;42.53;;
11620;SDS011;5866;49.094;11.900;2022-10-17T05:05:44;350.85;;;59.70;;
11620;SDS011;5866;49.094;11.900;2022-10-17T05:08:12;294.70;;;53.83;;
11620;SDS011;5866;49.094;11.900;2022-10-17T05:10:40;288.65;;;61.00;;
11620;SDS011;5866;49.094;11.900;2022-10-17T05:13:10;213.63;;;45.63;;
11620;SDS011;5866;49.094;11.900;2022-10-17T05:15:37;273.25;;;41.50;;
11620;SDS011;5866;49.094;11.900;2022-10-17T05:18:05;279.17;;;50.13;;
11620;SDS011;5866;49.094;11.900;2022-10-17T05:20:33;240.57;;;47.65;;
11620;SDS011;5866;49.094;11.900;2022-10-17T05:23:02;201.68;;;40.70;;
11620;SDS011;5866;49.094;11.900;2022-10-17T05:25:30;259.40;;;46.15;;
11620;SDS011;5866;49.094;11.900;2022-10-17T05:27:57;176.73;;;42.25;;
11620;SDS011;5866;49.094;11.900;2022-10-17T05:30:25;294.63;;;45.95;;
11620;SDS011;5866;49.094;11.900;2022-10-17T05:32:53;255.38;;;46.30;;
11620;SDS011;5866;49.094;11.900;2022-10-17T05:35:21;128.90;;;42.08;;
11620;SDS011;5866;49.094;11.900;2022-10-17T05:37:49;95.57;;;39.67;;
11620;SDS011;5866;49.094;11.900;2022-10-17T05:40:17;58.13;;;41.28;;
11620;SDS011;5866;49.094;11.900;2022-10-17T05:42:46;74.97;;;42.22;;
11620;SDS011;5866;49.094;11.900;2022-10-17T05:45:14;92.68;;;34.35;;
11620;SDS011;5866;49.094;11.900;2022-10-17T05:47:42;228.07;;;40.45;;
11620;SDS011;5866;49.094;11.900;2022-10-17T05:50:10;262.40;;;42.22;;
11620;SDS011;5866;49.094;11.900;2022-10-17T05:52:37;195.90;;;38.20;;
11620;SDS011;5866;49.094;11.900;2022-10-17T05:55:09;76.25;;;47.83;;
11620;SDS011;5866;49.094;11.900;2022-10-17T05:57:38;99.78;;;48.25;;
11620;SDS011;5866;49.094;11.900;2022-10-17T06:00:06;311.95;;;54.95;;
11620;SDS011;5866;49.094;11.900;2022-10-17T06:02:34;196.27;;;48.20;;
11620;SDS011;5866;49.094;11.900;2022-10-17T06:05:02;186.70;;;41.08;;
11620;SDS011;5866;49.094;11.900;2022-10-17T06:07:29;243.38;;;43.00;;
11620;SDS011;5866;49.094;11.900;2022-10-17T06:09:57;196.85;;;39.50;;
11620;SDS011;5866;49.094;11.900;2022-10-17T06:12:24;235.88;;;39.80;;
11620;SDS011;5866;49.094;11.900;2022-10-17T06:14:54;270.98;;;45.65;;
11620;SDS011;5866;49.094;11.900;2022-10-17T06:17:21;162.90;;;41.30;;
11620;SDS011;5866;49.094;11.900;2022-10-17T06:19:49;210.93;;;48.67;;
11620;SDS011;5866;49.094;11.900;2022-10-17T06:22:16;262.95;;;66.95;;
11620;SDS011;5866;49.094;11.900;2022-10-17T06:24:44;250.52;;;47.88;;
11620;SDS011;5866;49.094;11.900;2022-10-17T06:27:11;129.65;;;35.30;;
11620;SDS011;5866;49.094;11.900;2022-10-17T06:29:39;122.90;;;37.92;;
11620;SDS011;5866;49.094;11.900;2022-10-17T06:32:08;205.80;;;36.97;;
11620;SDS011;5866;49.094;11.900;2022-10-17T06:34:40;141.23;;;92.22;;
11620;SDS011;5866;49.094;11.900;2022-10-17T06:37:08;150.50;;;90.75;;
11620;SDS011;5866;49.094;11.900;2022-10-17T06:39:35;195.75;;;129.77;;
11620;SDS011;5866;49.094;11.900;2022-10-17T06:42:03;154.55;;;137.15;;
11620;SDS011;5866;49.094;11.900;2022-10-17T06:44:30;180.70;;;157.93;;
11620;SDS011;5866;49.094;11.900;2022-10-17T06:46:58;330.95;;;99.38;;
11620;SDS011;5866;49.094;11.900;2022-10-17T06:49:27;227.35;;;96.70;;
11620;SDS011;5866;49.094;11.900;2022-10-17T06:51:55;93.05;;;84.18;;
11620;SDS011;5866;49.094;11.900;2022-10-17T06:54:23;136.25;;;74.53;;
11620;SDS011;5866;49.094;11.900;2022-10-17T06:56:50;201.90;;;99.13;;
11620;SDS011;5866;49.094;11.900;2022-10-17T06:59:18;329.05;;;124.05;;
11620;SDS011;5866;49.094;11.900;2022-10-17T07:01:45;259.10;;;96.15;;
11620;SDS011;5866;49.094;11.900;2022-10-17T07:04:13;282.38;;;81.47;;
11620;SDS011;5866;49.094;11.900;2022-10-17T07:06:42;234.50;;;69.90;;
11620;SDS011;5866;49.094;11.900;2022-10-17T07:09:10;91.72;;;66.25;;
11620;SDS011;5866;49.094;11.900;2022-10-17T07:11:37;128.02;;;116.75;;
11620;SDS011;5866;49.094;11.900;2022-10-17T07:14:06;123.53;;;114.28;;
11620;SDS011;5866;49.094;11.900;2022-10-17T07:16:33;125.25;;;115.90;;
11620;SDS011;5866;49.094;11.900;2022-10-17T07:19:01;140.18;;;130.18;;
11620;SDS011;5866;49.094;11.900;2022-10-17T07:21:28;120.97;;;113.05;;
11620;SDS011;5866;49.094;11.900;2022-10-17T07:24:04;67.95;;;62.78;;
11620;SDS011;5866;49.094;11.900;2022-10-17T07:26:32;71.03;;;66.22;;
11620;SDS011;5866;49.094;11.900;2022-10-17T07:29:00;62.40;;;58.20;;
11620;SDS011;5866;49.094;11.900;2022-10-17T07:31:27;64.35;;;60.20;;
11620;SDS011;5866;49.094;11.900;2022-10-17T07:33:55;78.28;;;73.03;;
11620;SDS011;5866;49.094;11.900;2022-10-17T07:36:25;52.55;;;49.05;;
11620;SDS011;5866;49.094;11.900;2022-10-17T07:38:52;59.53;;;55.40;;
11620;SDS011;5866;49.094;11.900;2022-10-17T07:41:21;60.20;;;56.25;;
11620;SDS011;5866;49.094;11.900;2022-10-17T07:43:49;58.88;;;54.85;;
11620;SDS011;5866;49.094;11.900;2022-10-17T07:46:16;33.58;;;30.67;;
11620;SDS011;5866;49.094;11.900;2022-10-17T07:48:44;38.25;;;35.35;;
11620;SDS011;5866;49.094;11.900;2022-10-17T07:51:11;49.33;;;45.78;;
11620;SDS011;5866;49.094;11.900;2022-10-17T07:53:39;40.15;;;37.10;;
11620;SDS011;5866;49.094;11.900;2022-10-17T07:56:13;47.72;;;44.20;;
11620;SDS011;5866;49.094;11.900;2022-10-17T07:58:42;27.98;;;25.63;;
11620;SDS011;5866;49.094;11.900;2022-10-17T08:01:10;46.15;;;42.60;;
11620;SDS011;5866;49.094;11.900;2022-10-17T08:03:42;41.90;;;38.60;;
11620;SDS011;5866;49.094;11.900;2022-10-17T08:06:10;54.47;;;50.63;;
11620;SDS011;5866;49.094;11.900;2022-10-17T08:08:39;46.15;;;42.72;;
11620;SDS011;5866;49.094;11.900;2022-10-17T08:11:07;47.05;;;43.30;;
11620;SDS011;5866;49.094;11.900;2022-10-17T08:13:36;39.22;;;36.25;;
11620;SDS011;5866;49.094;11.900;2022-10-17T08:16:07;50.70;;;46.97;;
11620;SDS011;5866;49.094;11.900;2022-10-17T08:18:37;45.85;;;42.13;;
11620;SDS011;5866;49.094;11.900;2022-10-17T08:21:06;37.85;;;34.80;;
11620;SDS011;5866;49.094;11.900;2022-10-17T08:23:34;21.85;;;19.50;;
11620;SDS011;5866;49.094;11.900;2022-10-17T08:26:02;27.50;;;24.77;;
11620;SDS011;5866;49.094;11.900;2022-10-17T08:28:33;23.25;;;20.92;;
11620;SDS011;5866;49.094;11.900;2022-10-17T08:31:02;22.98;;;20.48;;
11620;SDS011;5866;49.094;11.900;2022-10-17T08:33:32;22.05;;;19.83;;
11620;SDS011;5866;49.094;11.900;2022-10-17T08:35:59;25.00;;;22.52;;
11620;SDS011;5866;49.094;11.900;2022-10-17T08:38:28;23.95;;;21.65;;
11620;SDS011;5866;49.094;11.900;2022-10-17T08:41:02;23.88;;;21.65;;
11620;SDS011;5866;49.094;11.900;2022-10-17T08:43:35;23.08;;;20.77;;
11620;SDS011;5866;49.094;11.900;2022-10-17T08:46:14;25.13;;;19.70;;
11620;SDS011;5866;49.094;11.900;2022-10-17T08:48:44;22.23;;;19.98;;
11620;SDS011;5866;49.094;11.900;2022-10-17T08:51:14;21.48;;;19.13;;
11620;SDS011;5866;49.094;11.900;2022-10-17T08:53:47;20.20;;;18.00;;
11620;SDS011;5866;49.094;11.900;2022-10-17T08:56:19;21.58;;;19.27;;
11620;SDS011;5866;49.094;11.900;2022-10-17T08:59:09;22.15;;;19.20;;
11620;SDS011;5866;49.094;11.900;2022-10-17T09:01:40;22.88;;;20.63;;
11620;SDS011;5866;49.094;11.900;2022-10-17T09:04:22;24.33;;;21.98;;
11620;SDS011;5866;49.094;11.900;2022-10-17T09:07:12;29.92;;;27.13;;
11620;SDS011;5866;49.094;11.900;2022-10-17T09:09:51;25.15;;;22.35;;
11620;SDS011;5866;49.094;11.900;2022-10-17T09:12:27;27.38;;;24.83;;
11620;SDS011;5866;49.094;11.900;2022-10-17T09:15:05;26.10;;;23.40;;
11620;SDS011;5866;49.094;11.900;2022-10-17T09:17:49;24.38;;;21.83;;
11620;SDS011;5866;49.094;11.900;2022-10-17T09:20:23;28.77;;;26.05;;
11620;SDS011;5866;49.094;11.900;2022-10-17T09:22:54;29.40;;;26.70;;
11620;SDS011;5866;49.094;11.900;2022-10-17T09:25:24;25.33;;;22.77;;
11620;SDS011;5866;49.094;11.900;2022-10-17T09:27:53;25.10;;;22.45;;
11620;SDS011;5866;49.094;11.900;2022-10-17T09:30:34;26.23;;;23.83;;
11620;SDS011;5866;49.094;11.900;2022-10-17T09:33:12;25.70;;;22.67;;
11620;SDS011;5866;49.094;11.900;2022-10-17T09:36:03;24.92;;;22.42;;
11620;SDS011;5866;49.094;11.900;2022-10-17T09:38:37;24.55;;;22.13;;
11620;SDS011;5866;49.094;11.900;2022-10-17T09:41:12;24.60;;;22.33;;
11620;SDS011;5866;49.094;11.900;2022-10-17T09:46:58;24.27;;;21.98;;
11620;SDS011;5866;49.094;11.900;2022-10-17T09:49:32;22.85;;;20.60;;
11620;SDS011;5866;49.094;11.900;2022-10-17T09:52:03;23.70;;;21.25;;
11620;SDS011;5866;49.094;11.900;2022-10-17T09:54:35;23.48;;;21.20;;
11620;SDS011;5866;49.094;11.900;2022-10-17T09:57:09;21.38;;;19.25;;
11620;SDS011;5866;49.094;11.900;2022-10-17T09:59:39;21.38;;;18.90;;
11620;SDS011;5866;49.094;11.900;2022-10-17T10:02:13;22.95;;;20.55;;
11620;SDS011;5866;49.094;11.900;2022-10-17T10:04:57;19.90;;;17.90;;
11620;SDS011;5866;49.094;11.900;2022-10-17T10:10:04;22.45;;;20.17;;
11620;SDS011;5866;49.094;11.900;2022-10-17T10:12:34;22.50;;;20.40;;
11620;SDS011;5866;49.094;11.900;2022-10-17T10:15:26;20.67;;;18.58;;
11620;SDS011;5866;49.094;11.900;2022-10-17T10:17:58;23.40;;;20.92;;
11620;SDS011;5866;49.094;11.900;2022-10-17T10:20:27;26.15;;;22.02;;
11620;SDS011;5866;49.094;11.900;2022-10-17T10:23:06;22.52;;;20.30;;
11620;SDS011;5866;49.094;11.900;2022-10-17T10:25:47;22.90;;;19.83;;
11620;SDS011;5866;49.094;11.900;2022-10-17T10:28:21;21.45;;;19.08;;
11620;SDS011;5866;49.094;11.900;2022-10-17T10:30:52;21.83;;;16.13;;
11620;SDS011;5866;49.094;11.900;2022-10-17T10:33:22;18.38;;;16.38;;
11620;SDS011;5866;49.094;11.900;2022-10-17T10:35:54;19.60;;;14.85;;
11620;SDS011;5866;49.094;11.900;2022-10-17T10:38:25;14.32;;;12.60;;
11620;SDS011;5866;49.094;11.900;2022-10-17T10:40:54;15.18;;;12.68;;
11620;SDS011;5866;49.094;11.900;2022-10-17T10:43:25;14.70;;;13.00;;
11620;SDS011;5866;49.094;11.900;2022-10-17T10:45:58;13.00;;;11.65;;
11620;SDS011;5866;49.094;11.900;2022-10-17T10:48:26;14.00;;;12.60;;
11620;SDS011;5866;49.094;11.900;2022-10-17T10:50:59;18.20;;;12.73;;
11620;SDS011;5866;49.094;11.900;2022-10-17T10:53:35;13.32;;;11.93;;
11620;SDS011;5866;49.094;11.900;2022-10-17T10:56:10;15.73;;;12.43;;
11620;SDS011;5866;49.094;11.900;2022-10-17T10:58:47;14.20;;;12.77;;
11620;SDS011;5866;49.094;11.900;2022-10-17T11:01:21;14.93;;;12.20;;
11620;SDS011;5866;49.094;11.900;2022-10-17T11:03:58;14.80;;;13.05;;
11620;SDS011;5866;49.094;11.900;2022-10-17T11:06:35;15.88;;;12.93;;
11620;SDS011;5866;49.094;11.900;2022-10-17T11:09:15;14.52;;;11.95;;
11620;SDS011;5866;49.094;11.900;2022-10-17T11:11:58;13.65;;;12.25;;
11620;SDS011;5866;49.094;11.900;2022-10-17T11:14:33;14.93;;;12.73;;
11620;SDS011;5866;49.094;11.900;2022-10-17T11:17:11;17.42;;;12.07;;
11620;SDS011;5866;49.094;11.900;2022-10-17T11:19:47;15.30;;;13.70;;
11620;SDS011;5866;49.094;11.900;2022-10-17T11:22:23;15.20;;;13.55;;
11620;SDS011;5866;49.094;11.900;2022-10-17T11:24:57;17.80;;;13.70;;
11620;SDS011;5866;49.094;11.900;2022-10-17T11:27:27;15.98;;;13.55;;
11620;SDS011;5866;49.094;11.900;2022-10-17T11:29:56;16.08;;;13.48;;
11620;SDS011;5866;49.094;11.900;2022-10-17T11:32:26;16.42;;;12.65;;
11620;SDS011;5866;49.094;11.900;2022-10-17T11:35:00;12.57;;;11.07;;
11620;SDS011;5866;49.094;11.900;2022-10-17T11:37:32;14.20;;;11.57;;
11620;SDS011;5866;49.094;11.900;2022-10-17T11:40:08;15.30;;;11.70;;
11620;SDS011;5866;49.094;11.900;2022-10-17T11:42:49;12.63;;;11.07;;
11620;SDS011;5866;49.094;11.900;2022-10-17T11:45:20;15.30;;;14.02;;
11620;SDS011;5866;49.094;11.900;2022-10-17T11:47:50;12.98;;;11.75;;
11620;SDS011;5866;49.094;11.900;2022-10-17T11:50:21;12.95;;;11.65;;
11620;SDS011;5866;49.094;11.900;2022-10-17T11:53:13;11.70;;;10.50;;
11620;SDS011;5866;49.094;11.900;2022-10-17T11:55:44;13.20;;;11.95;;
11620;SDS011;5866;49.094;11.900;2022-10-17T12:01:06;18.20;;;13.00;;
11620;SDS011;5866;49.094;11.900;2022-10-17T12:03:43;14.27;;;12.20;;
11620;SDS011;5866;49.094;11.900;2022-10-17T12:06:18;14.40;;;13.10;;
11620;SDS011;5866;49.094;11.900;2022-10-17T12:09:06;15.45;;;13.95;;
11620;SDS011;5866;49.094;11.900;2022-10-17T12:11:47;16.00;;;14.57;;
11620;SDS011;5866;49.094;11.900;2022-10-17T12:14:38;15.20;;;13.80;;
11620;SDS011;5866;49.094;11.900;2022-10-17T12:17:21;16.80;;;12.43;;
11620;SDS011;5866;49.094;11.900;2022-10-17T12:22:53;13.88;;;12.68;;
11620;SDS011;5866;49.094;11.900;2022-10-17T12:25:22;15.10;;;13.20;;
11620;SDS011;5866;49.094;11.900;2022-10-17T12:30:51;13.52;;;12.32;;
11620;SDS011;5866;49.094;11.900;2022-10-17T12:33:23;13.13;;;12.02;;
11620;SDS011;5866;49.094;11.900;2022-10-17T12:39:40;14.52;;;13.23;;
11620;SDS011;5866;49.094;11.900;2022-10-17T12:44:59;13.77;;;12.52;;
11620;SDS011;5866;49.094;11.900;2022-10-17T12:47:27;14.20;;;13.10;;
11620;SDS011;5866;49.094;11.900;2022-10-17T12:53:05;14.32;;;13.13;;
11620;SDS011;5866;49.094;11.900;2022-10-17T12:55:33;13.32;;;12.13;;
11620;SDS011;5866;49.094;11.900;2022-10-17T12:58:02;13.70;;;12.50;;
11620;SDS011;5866;49.094;11.900;2022-10-17T13:00:34;14.27;;;13.05;;
11620;SDS011;5866;49.094;11.900;2022-10-17T13:03:25;14.23;;;13.02;;
11620;SDS011;5866;49.094;11.900;2022-10-17T13:05:56;13.80;;;12.50;;
11620;SDS011;5866;49.094;11.900;2022-10-17T13:08:27;14.48;;;13.18;;
11620;SDS011;5866;49.094;11.900;2022-10-17T13:10:58;14.57;;;13.35;;
11620;SDS011;5866;49.094;11.900;2022-10-17T13:13:35;13.15;;;11.95;;
11620;SDS011;5866;49.094;11.900;2022-10-17T13:16:07;13.45;;;12.43;;
11620;SDS011;5866;49.094;11.900;2022-10-17T13:18:34;13.55;;;12.30;;
11620;SDS011;5866;49.094;11.900;2022-10-17T13:21:03;13.52;;;12.23;;
11620;SDS011;5866;49.094;11.900;2022-10-17T13:23:33;13.93;;;12.82;;
11620;SDS011;5866;49.094;11.900;2022-10-17T13:26:06;13.68;;;12.57;;
11620;SDS011;5866;49.094;11.900;2022-10-17T13:28:40;13.30;;;12.10;;
11620;SDS011;5866;49.094;11.900;2022-10-17T13:34:03;13.60;;;12.20;;
11620;SDS011;5866;49.094;11.900;2022-10-17T13:36:32;13.15;;;12.10;;
11620;SDS011;5866;49.094;11.900;2022-10-17T13:39:04;13.90;;;12.73;;
11620;SDS011;5866;49.094;11.900;2022-10-17T13:41:38;13.68;;;12.55;;
11620;SDS011;5866;49.094;11.900;2022-10-17T13:44:09;13.50;;;12.50;;
11620;SDS011;5866;49.094;11.900;2022-10-17T13:46:39;13.57;;;12.45;;
11620;SDS011;5866;49.094;11.900;2022-10-17T13:49:09;12.93;;;11.77;;
11620;SDS011;5866;49.094;11.900;2022-10-17T13:51:42;13.10;;;11.93;;
11620;SDS011;5866;49.094;11.900;2022-10-17T13:54:34;13.52;;;12.50;;
11620;SDS011;5866;49.094;11.900;2022-10-17T13:57:03;12.88;;;11.98;;
11620;SDS011;5866;49.094;11.900;2022-10-17T13:59:35;12.73;;;11.63;;
11620;SDS011;5866;49.094;11.900;2022-10-17T14:02:05;11.45;;;10.63;;
11620;SDS011;5866;49.094;11.900;2022-10-17T14:04:39;11.65;;;10.73;;
11620;SDS011;5866;49.094;11.900;2022-10-17T14:07:28;12.20;;;11.10;;
11620;SDS011;5866;49.094;11.900;2022-10-17T14:10:21;11.25;;;10.30;;
11620;SDS011;5866;49.094;11.900;2022-10-17T14:12:50;10.18;;;9.45;;
11620;SDS011;5866;49.094;11.900;2022-10-17T14:15:19;10.98;;;10.07;;
11620;SDS011;5866;49.094;11.900;2022-10-17T14:17:53;10.70;;;9.82;;
11620;SDS011;5866;49.094;11.900;2022-10-17T14:20:24;11.07;;;10.07;;
11620;SDS011;5866;49.094;11.900;2022-10-17T14:23:30;10.50;;;9.68;;
11620;SDS011;5866;49.094;11.900;2022-10-17T14:26:04;10.82;;;10.00;;
11620;SDS011;5866;49.094;11.900;2022-10-17T14:28:34;9.65;;;8.93;;
11620;SDS011;5866;49.094;11.900;2022-10-17T14:31:09;8.55;;;7.80;;
11620;SDS011;5866;49.094;11.900;2022-10-17T14:33:42;10.23;;;9.45;;
11620;SDS011;5866;49.094;11.900;2022-10-17T14:36:17;9.65;;;8.77;;
11620;SDS011;5866;49.094;11.900;2022-10-17T14:38:46;8.65;;;7.85;;
11620;SDS011;5866;49.094;11.900;2022-10-17T14:41:18;7.97;;;7.38;;
11620;SDS011;5866;49.094;11.900;2022-10-17T14:44:13;6.82;;;6.28;;
11620;SDS011;5866;49.094;11.900;2022-10-17T14:46:45;7.88;;;7.28;;
11620;SDS011;5866;49.094;11.900;2022-10-17T14:49:19;9.32;;;8.63;;
11620;SDS011;5866;49.094;11.900;2022-10-17T14:52:11;9.98;;;9.07;;
11620;SDS011;5866;49.094;11.900;2022-10-17T14:54:54;8.68;;;7.88;;
11620;SDS011;5866;49.094;11.900;2022-10-17T14:57:24;9.02;;;8.32;;
11620;SDS011;5866;49.094;11.900;2022-10-17T14:59:55;9.38;;;8.68;;
11620;SDS011;5866;49.094;11.900;2022-10-17T15:02:23;10.23;;;9.52;;
11620;SDS011;5866;49.094;11.900;2022-10-17T15:04:52;9.18;;;8.38;;
11620;SDS011;5866;49.094;11.900;2022-10-17T15:07:21;8.50;;;7.80;;
11620;SDS011;5866;49.094;11.900;2022-10-17T15:09:50;7.60;;;7.00;;
11620;SDS011;5866;49.094;11.900;2022-10-17T15:12:19;8.77;;;6.93;;
11620;SDS011;5866;49.094;11.900;2022-10-17T15:14:50;7.13;;;5.82;;